sensor_id;sensor_type;location;lat;lon;timestamp;P1;durP1;ratioP1;P2;durP2;ratioP2
38117;SDS011;23928;47.562;7.508;2023-08-01T00:00:00;3.10;;;2.80;;
38117;SDS011;23928;47.562;7.508;2023-08-01T00:02:27;3.57;;;2.63;;
38117;SDS011;23928;47.562;7.508;2023-08-01T00:04:53;4.40;;;2.77;;
38117;SDS011;23928;47.562;7.508;2023-08-01T00:07:19;3.10;;;2.53;;
38117;SDS011;23928;47.562;7.508;2023-08-01T00:09:44;4.07;;;2.57;;
38117;SDS011;23928;47.562;7.508;2023-08-01T00:12:10;2.83;;;2.30;;
38117;SDS011;23928;47.562;7.508;2023-08-01T00:14:36;5.50;;;2.97;;
38117;SDS011;23928;47.562;7.508;2023-08-01T00:17:01;4.50;;;2.57;;
38117;SDS011;23928;47.562;7.508;2023-08-01T00:19:27;3.67;;;2.90;;
38117;SDS011;23928;47.562;7.508;2023-08-01T00:21:53;2.90;;;2.50;;
38117;SDS011;23928;47.562;7.508;2023-08-01T00:24:19;3.60;;;2.53;;
38117;SDS011;23928;47.562;7.508;2023-08-01T00:26:45;2.60;;;2.40;;
38117;SDS011;23928;47.562;7.508;2023-08-01T00:29:10;3.07;;;2.43;;
38117;SDS011;23928;47.562;7.508;2023-08-01T00:31:36;5.13;;;2.73;;
38117;SDS011;23928;47.562;7.508;2023-08-01T00:34:01;3.50;;;2.63;;
38117;SDS011;23928;47.562;7.508;2023-08-01T00:36:27;3.63;;;2.40;;
38117;SDS011;23928;47.562;7.508;2023-08-01T00:38:52;3.20;;;2.67;;
38117;SDS011;23928;47.562;7.508;2023-08-01T00:41:18;4.97;;;3.00;;
38117;SDS011;23928;47.562;7.508;2023-08-01T00:43:44;5.20;;;2.90;;
38117;SDS011;23928;47.562;7.508;2023-08-01T00:46:09;3.90;;;2.60;;
38117;SDS011;23928;47.562;7.508;2023-08-01T00:48:35;6.90;;;2.23;;
38117;SDS011;23928;47.562;7.508;2023-08-01T00:51:03;3.67;;;2.70;;
38117;SDS011;23928;47.562;7.508;2023-08-01T00:53:30;4.47;;;3.00;;
38117;SDS011;23928;47.562;7.508;2023-08-01T00:55:56;4.37;;;2.60;;
38117;SDS011;23928;47.562;7.508;2023-08-01T00:58:23;3.33;;;2.50;;
38117;SDS011;23928;47.562;7.508;2023-08-01T01:00:49;3.47;;;2.77;;
38117;SDS011;23928;47.562;7.508;2023-08-01T01:03:15;4.33;;;2.37;;
38117;SDS011;23928;47.562;7.508;2023-08-01T01:05:43;4.17;;;2.70;;
38117;SDS011;23928;47.562;7.508;2023-08-01T01:08:18;4.57;;;2.47;;
38117;SDS011;23928;47.562;7.508;2023-08-01T01:10:44;4.20;;;2.57;;
38117;SDS011;23928;47.562;7.508;2023-08-01T01:13:09;6.00;;;2.70;;
38117;SDS011;23928;47.562;7.508;2023-08-01T01:15:35;3.80;;;2.73;;
38117;SDS011;23928;47.562;7.508;2023-08-01T01:18:00;3.90;;;2.73;;
38117;SDS011;23928;47.562;7.508;2023-08-01T01:20:29;3.17;;;2.53;;
38117;SDS011;23928;47.562;7.508;2023-08-01T01:22:59;3.13;;;2.20;;
38117;SDS011;23928;47.562;7.508;2023-08-01T01:25:25;4.33;;;2.73;;
38117;SDS011;23928;47.562;7.508;2023-08-01T01:27:52;3.27;;;2.53;;
38117;SDS011;23928;47.562;7.508;2023-08-01T01:30:19;5.50;;;2.70;;
38117;SDS011;23928;47.562;7.508;2023-08-01T01:32:45;2.93;;;2.43;;
38117;SDS011;23928;47.562;7.508;2023-08-01T01:35:11;3.93;;;2.90;;
38117;SDS011;23928;47.562;7.508;2023-08-01T01:37:37;6.13;;;2.70;;
38117;SDS011;23928;47.562;7.508;2023-08-01T01:40:03;4.57;;;2.47;;
38117;SDS011;23928;47.562;7.508;2023-08-01T01:42:29;3.60;;;2.70;;
38117;SDS011;23928;47.562;7.508;2023-08-01T01:44:54;6.20;;;3.23;;
38117;SDS011;23928;47.562;7.508;2023-08-01T01:47:20;5.40;;;2.60;;
38117;SDS011;23928;47.562;7.508;2023-08-01T01:49:45;4.47;;;2.50;;
38117;SDS011;23928;47.562;7.508;2023-08-01T01:52:11;2.90;;;2.40;;
38117;SDS011;23928;47.562;7.508;2023-08-01T01:54:36;2.50;;;2.30;;
38117;SDS011;23928;47.562;7.508;2023-08-01T01:57:02;6.87;;;2.77;;
38117;SDS011;23928;47.562;7.508;2023-08-01T01:59:27;2.83;;;2.60;;
38117;SDS011;23928;47.562;7.508;2023-08-01T02:01:53;2.83;;;2.30;;
38117;SDS011;23928;47.562;7.508;2023-08-01T02:04:19;4.23;;;2.60;;
38117;SDS011;23928;47.562;7.508;2023-08-01T02:06:45;2.97;;;2.40;;
38117;SDS011;23928;47.562;7.508;2023-08-01T02:09:10;3.77;;;2.77;;
38117;SDS011;23928;47.562;7.508;2023-08-01T02:11:36;4.90;;;2.60;;
38117;SDS011;23928;47.562;7.508;2023-08-01T02:14:01;3.63;;;2.40;;
38117;SDS011;23928;47.562;7.508;2023-08-01T02:16:28;6.20;;;2.60;;
38117;SDS011;23928;47.562;7.508;2023-08-01T02:18:53;3.83;;;2.47;;
38117;SDS011;23928;47.562;7.508;2023-08-01T02:21:19;3.97;;;2.33;;
38117;SDS011;23928;47.562;7.508;2023-08-01T02:23:44;4.50;;;2.83;;
38117;SDS011;23928;47.562;7.508;2023-08-01T02:26:10;3.60;;;2.50;;
38117;SDS011;23928;47.562;7.508;2023-08-01T02:28:35;3.63;;;2.60;;
38117;SDS011;23928;47.562;7.508;2023-08-01T02:31:01;5.07;;;2.50;;
38117;SDS011;23928;47.562;7.508;2023-08-01T02:33:27;2.80;;;2.60;;
38117;SDS011;23928;47.562;7.508;2023-08-01T02:35:52;3.93;;;2.30;;
38117;SDS011;23928;47.562;7.508;2023-08-01T02:38:18;3.23;;;2.20;;
38117;SDS011;23928;47.562;7.508;2023-08-01T02:40:43;5.13;;;2.40;;
38117;SDS011;23928;47.562;7.508;2023-08-01T02:43:09;4.50;;;2.80;;
38117;SDS011;23928;47.562;7.508;2023-08-01T02:45:34;5.40;;;2.50;;
38117;SDS011;23928;47.562;7.508;2023-08-01T02:48:00;3.40;;;2.37;;
38117;SDS011;23928;47.562;7.508;2023-08-01T02:50:26;3.40;;;2.20;;
38117;SDS011;23928;47.562;7.508;2023-08-01T02:52:51;5.27;;;2.60;;
38117;SDS011;23928;47.562;7.508;2023-08-01T02:55:17;3.03;;;2.10;;
38117;SDS011;23928;47.562;7.508;2023-08-01T02:57:42;3.27;;;2.30;;
38117;SDS011;23928;47.562;7.508;2023-08-01T03:00:08;4.77;;;2.67;;
38117;SDS011;23928;47.562;7.508;2023-08-01T03:02:36;3.40;;;2.43;;
38117;SDS011;23928;47.562;7.508;2023-08-01T03:05:03;4.87;;;2.60;;
38117;SDS011;23928;47.562;7.508;2023-08-01T03:07:31;5.57;;;2.77;;
38117;SDS011;23928;47.562;7.508;2023-08-01T03:09:56;4.80;;;2.50;;
38117;SDS011;23928;47.562;7.508;2023-08-01T03:12:22;3.37;;;2.30;;
38117;SDS011;23928;47.562;7.508;2023-08-01T03:14:47;4.80;;;2.30;;
38117;SDS011;23928;47.562;7.508;2023-08-01T03:17:13;4.70;;;2.80;;
38117;SDS011;23928;47.562;7.508;2023-08-01T03:19:39;3.27;;;2.50;;
38117;SDS011;23928;47.562;7.508;2023-08-01T03:22:04;3.77;;;2.57;;
38117;SDS011;23928;47.562;7.508;2023-08-01T03:24:30;5.20;;;2.47;;
38117;SDS011;23928;47.562;7.508;2023-08-01T03:26:55;4.63;;;2.50;;
38117;SDS011;23928;47.562;7.508;2023-08-01T03:29:21;3.90;;;2.00;;
38117;SDS011;23928;47.562;7.508;2023-08-01T03:31:47;4.73;;;2.50;;
38117;SDS011;23928;47.562;7.508;2023-08-01T03:34:12;3.27;;;2.40;;
38117;SDS011;23928;47.562;7.508;2023-08-01T03:36:38;4.10;;;2.33;;
38117;SDS011;23928;47.562;7.508;2023-08-01T03:39:03;5.30;;;2.37;;
38117;SDS011;23928;47.562;7.508;2023-08-01T03:41:29;3.60;;;2.80;;
38117;SDS011;23928;47.562;7.508;2023-08-01T03:43:56;4.07;;;2.57;;
38117;SDS011;23928;47.562;7.508;2023-08-01T03:46:21;3.60;;;2.60;;
38117;SDS011;23928;47.562;7.508;2023-08-01T03:48:47;3.90;;;2.50;;
38117;SDS011;23928;47.562;7.508;2023-08-01T03:51:13;4.73;;;2.50;;
38117;SDS011;23928;47.562;7.508;2023-08-01T03:53:40;3.93;;;2.40;;
38117;SDS011;23928;47.562;7.508;2023-08-01T03:56:07;4.27;;;2.47;;
38117;SDS011;23928;47.562;7.508;2023-08-01T03:58:32;3.40;;;2.63;;
38117;SDS011;23928;47.562;7.508;2023-08-01T04:00:58;4.57;;;2.60;;
38117;SDS011;23928;47.562;7.508;2023-08-01T04:03:23;4.23;;;2.67;;
38117;SDS011;23928;47.562;7.508;2023-08-01T04:05:49;4.67;;;2.53;;
38117;SDS011;23928;47.562;7.508;2023-08-01T04:08:14;3.73;;;2.60;;
38117;SDS011;23928;47.562;7.508;2023-08-01T04:10:40;5.50;;;2.87;;
38117;SDS011;23928;47.562;7.508;2023-08-01T04:13:06;5.30;;;3.13;;
38117;SDS011;23928;47.562;7.508;2023-08-01T04:15:31;4.20;;;2.43;;
38117;SDS011;23928;47.562;7.508;2023-08-01T04:17:57;4.40;;;2.37;;
38117;SDS011;23928;47.562;7.508;2023-08-01T04:20:22;5.13;;;2.60;;
38117;SDS011;23928;47.562;7.508;2023-08-01T04:22:48;4.17;;;2.30;;
38117;SDS011;23928;47.562;7.508;2023-08-01T04:25:14;3.77;;;2.60;;
38117;SDS011;23928;47.562;7.508;2023-08-01T04:27:39;4.43;;;2.87;;
38117;SDS011;23928;47.562;7.508;2023-08-01T04:30:05;4.47;;;2.80;;
38117;SDS011;23928;47.562;7.508;2023-08-01T04:32:31;4.87;;;3.03;;
38117;SDS011;23928;47.562;7.508;2023-08-01T04:34:56;4.93;;;2.60;;
38117;SDS011;23928;47.562;7.508;2023-08-01T04:37:22;5.13;;;2.60;;
38117;SDS011;23928;47.562;7.508;2023-08-01T04:39:48;5.50;;;2.50;;
38117;SDS011;23928;47.562;7.508;2023-08-01T04:42:14;6.00;;;3.07;;
38117;SDS011;23928;47.562;7.508;2023-08-01T04:44:39;4.90;;;2.87;;
38117;SDS011;23928;47.562;7.508;2023-08-01T04:47:05;4.87;;;2.50;;
38117;SDS011;23928;47.562;7.508;2023-08-01T04:49:30;6.10;;;2.93;;
38117;SDS011;23928;47.562;7.508;2023-08-01T04:51:56;4.93;;;2.77;;
38117;SDS011;23928;47.562;7.508;2023-08-01T04:54:21;6.80;;;3.20;;
38117;SDS011;23928;47.562;7.508;2023-08-01T04:56:47;5.93;;;2.53;;
38117;SDS011;23928;47.562;7.508;2023-08-01T04:59:13;6.50;;;2.80;;
38117;SDS011;23928;47.562;7.508;2023-08-01T05:01:38;4.00;;;2.83;;
38117;SDS011;23928;47.562;7.508;2023-08-01T05:04:04;5.10;;;3.37;;
38117;SDS011;23928;47.562;7.508;2023-08-01T05:06:29;8.97;;;3.10;;
38117;SDS011;23928;47.562;7.508;2023-08-01T05:08:55;5.93;;;3.70;;
38117;SDS011;23928;47.562;7.508;2023-08-01T05:11:21;8.00;;;3.57;;
38117;SDS011;23928;47.562;7.508;2023-08-01T05:13:46;7.40;;;3.97;;
38117;SDS011;23928;47.562;7.508;2023-08-01T05:16:12;6.73;;;3.33;;
38117;SDS011;23928;47.562;7.508;2023-08-01T05:18:38;4.23;;;2.97;;
38117;SDS011;23928;47.562;7.508;2023-08-01T05:21:03;5.60;;;3.10;;
38117;SDS011;23928;47.562;7.508;2023-08-01T05:23:29;5.63;;;3.33;;
38117;SDS011;23928;47.562;7.508;2023-08-01T05:25:54;8.03;;;3.30;;
38117;SDS011;23928;47.562;7.508;2023-08-01T05:28:20;4.57;;;3.30;;
38117;SDS011;23928;47.562;7.508;2023-08-01T05:30:46;4.53;;;3.03;;
38117;SDS011;23928;47.562;7.508;2023-08-01T05:33:12;5.67;;;3.30;;
38117;SDS011;23928;47.562;7.508;2023-08-01T05:35:37;6.73;;;3.30;;
38117;SDS011;23928;47.562;7.508;2023-08-01T05:38:03;6.13;;;3.33;;
38117;SDS011;23928;47.562;7.508;2023-08-01T05:40:28;5.23;;;3.33;;
38117;SDS011;23928;47.562;7.508;2023-08-01T05:42:54;6.20;;;3.23;;
38117;SDS011;23928;47.562;7.508;2023-08-01T05:45:20;4.93;;;3.20;;
38117;SDS011;23928;47.562;7.508;2023-08-01T05:47:45;8.50;;;3.60;;
38117;SDS011;23928;47.562;7.508;2023-08-01T05:50:11;5.20;;;3.70;;
38117;SDS011;23928;47.562;7.508;2023-08-01T05:52:37;6.83;;;3.67;;
38117;SDS011;23928;47.562;7.508;2023-08-01T05:55:03;9.67;;;3.63;;
38117;SDS011;23928;47.562;7.508;2023-08-01T05:57:29;4.10;;;3.00;;
38117;SDS011;23928;47.562;7.508;2023-08-01T05:59:55;4.93;;;3.30;;
38117;SDS011;23928;47.562;7.508;2023-08-01T06:02:20;4.47;;;3.47;;
38117;SDS011;23928;47.562;7.508;2023-08-01T06:04:46;4.33;;;3.30;;
38117;SDS011;23928;47.562;7.508;2023-08-01T06:07:11;6.60;;;3.37;;
38117;SDS011;23928;47.562;7.508;2023-08-01T06:09:37;5.33;;;3.00;;
38117;SDS011;23928;47.562;7.508;2023-08-01T06:12:03;5.27;;;3.63;;
38117;SDS011;23928;47.562;7.508;2023-08-01T06:14:28;6.17;;;3.47;;
38117;SDS011;23928;47.562;7.508;2023-08-01T06:16:54;4.77;;;3.03;;
38117;SDS011;23928;47.562;7.508;2023-08-01T06:19:20;7.33;;;3.70;;
38117;SDS011;23928;47.562;7.508;2023-08-01T06:21:45;4.90;;;3.20;;
38117;SDS011;23928;47.562;7.508;2023-08-01T06:24:11;4.03;;;3.20;;
38117;SDS011;23928;47.562;7.508;2023-08-01T06:26:36;4.80;;;3.27;;
38117;SDS011;23928;47.562;7.508;2023-08-01T06:29:02;4.87;;;3.30;;
38117;SDS011;23928;47.562;7.508;2023-08-01T06:31:28;4.77;;;3.20;;
38117;SDS011;23928;47.562;7.508;2023-08-01T06:33:53;4.73;;;3.30;;
38117;SDS011;23928;47.562;7.508;2023-08-01T06:36:19;5.07;;;3.33;;
38117;SDS011;23928;47.562;7.508;2023-08-01T06:38:45;7.03;;;3.37;;
38117;SDS011;23928;47.562;7.508;2023-08-01T06:41:11;6.20;;;3.40;;
38117;SDS011;23928;47.562;7.508;2023-08-01T06:43:36;4.23;;;2.83;;
38117;SDS011;23928;47.562;7.508;2023-08-01T06:46:03;5.00;;;3.63;;
38117;SDS011;23928;47.562;7.508;2023-08-01T06:48:29;5.23;;;3.40;;
38117;SDS011;23928;47.562;7.508;2023-08-01T06:50:55;5.03;;;3.30;;
38117;SDS011;23928;47.562;7.508;2023-08-01T06:53:21;4.13;;;2.90;;
38117;SDS011;23928;47.562;7.508;2023-08-01T06:55:46;6.03;;;3.30;;
38117;SDS011;23928;47.562;7.508;2023-08-01T06:58:12;4.83;;;3.43;;
38117;SDS011;23928;47.562;7.508;2023-08-01T07:00:38;4.87;;;3.57;;
38117;SDS011;23928;47.562;7.508;2023-08-01T07:03:03;3.97;;;3.43;;
38117;SDS011;23928;47.562;7.508;2023-08-01T07:05:29;3.63;;;2.40;;
38117;SDS011;23928;47.562;7.508;2023-08-01T07:07:54;4.60;;;3.03;;
38117;SDS011;23928;47.562;7.508;2023-08-01T07:10:21;5.53;;;3.77;;
38117;SDS011;23928;47.562;7.508;2023-08-01T07:12:46;6.00;;;3.10;;
38117;SDS011;23928;47.562;7.508;2023-08-01T07:15:13;4.23;;;3.00;;
38117;SDS011;23928;47.562;7.508;2023-08-01T07:17:39;6.20;;;3.23;;
38117;SDS011;23928;47.562;7.508;2023-08-01T07:20:05;3.50;;;2.90;;
38117;SDS011;23928;47.562;7.508;2023-08-01T07:22:30;3.67;;;2.90;;
38117;SDS011;23928;47.562;7.508;2023-08-01T07:24:56;4.10;;;2.70;;
38117;SDS011;23928;47.562;7.508;2023-08-01T07:27:21;4.17;;;2.90;;
38117;SDS011;23928;47.562;7.508;2023-08-01T07:29:47;5.63;;;2.80;;
38117;SDS011;23928;47.562;7.508;2023-08-01T07:32:13;3.97;;;2.90;;
38117;SDS011;23928;47.562;7.508;2023-08-01T07:34:39;4.47;;;2.70;;
38117;SDS011;23928;47.562;7.508;2023-08-01T07:37:05;4.93;;;3.00;;
38117;SDS011;23928;47.562;7.508;2023-08-01T07:39:30;3.17;;;2.50;;
38117;SDS011;23928;47.562;7.508;2023-08-01T07:41:56;3.37;;;2.80;;
38117;SDS011;23928;47.562;7.508;2023-08-01T07:44:22;3.30;;;2.63;;
38117;SDS011;23928;47.562;7.508;2023-08-01T07:46:48;3.13;;;2.73;;
38117;SDS011;23928;47.562;7.508;2023-08-01T07:49:13;2.87;;;2.30;;
38117;SDS011;23928;47.562;7.508;2023-08-01T07:51:39;4.07;;;2.87;;
38117;SDS011;23928;47.562;7.508;2023-08-01T07:54:04;4.90;;;2.67;;
38117;SDS011;23928;47.562;7.508;2023-08-01T07:56:30;3.30;;;2.10;;
38117;SDS011;23928;47.562;7.508;2023-08-01T07:58:56;2.70;;;2.00;;
38117;SDS011;23928;47.562;7.508;2023-08-01T08:01:21;2.53;;;2.03;;
38117;SDS011;23928;47.562;7.508;2023-08-01T08:03:47;2.43;;;2.00;;
38117;SDS011;23928;47.562;7.508;2023-08-01T08:06:13;2.27;;;2.00;;
38117;SDS011;23928;47.562;7.508;2023-08-01T08:08:39;2.33;;;1.93;;
38117;SDS011;23928;47.562;7.508;2023-08-01T08:11:04;1.97;;;1.80;;
38117;SDS011;23928;47.562;7.508;2023-08-01T08:13:30;2.20;;;1.87;;
38117;SDS011;23928;47.562;7.508;2023-08-01T08:15:56;1.70;;;1.53;;
38117;SDS011;23928;47.562;7.508;2023-08-01T08:18:22;2.13;;;1.50;;
38117;SDS011;23928;47.562;7.508;2023-08-01T08:20:48;3.13;;;1.20;;
38117;SDS011;23928;47.562;7.508;2023-08-01T08:23:13;1.23;;;1.13;;
38117;SDS011;23928;47.562;7.508;2023-08-01T08:25:39;1.23;;;1.20;;
38117;SDS011;23928;47.562;7.508;2023-08-01T08:28:06;1.70;;;1.30;;
38117;SDS011;23928;47.562;7.508;2023-08-01T08:30:31;1.93;;;1.30;;
38117;SDS011;23928;47.562;7.508;2023-08-01T08:32:57;2.60;;;1.30;;
38117;SDS011;23928;47.562;7.508;2023-08-01T08:35:25;1.53;;;1.30;;
38117;SDS011;23928;47.562;7.508;2023-08-01T08:37:51;2.17;;;1.50;;
38117;SDS011;23928;47.562;7.508;2023-08-01T08:40:16;1.23;;;1.13;;
38117;SDS011;23928;47.562;7.508;2023-08-01T08:42:42;1.20;;;1.10;;
38117;SDS011;23928;47.562;7.508;2023-08-01T08:45:10;1.50;;;1.30;;
38117;SDS011;23928;47.562;7.508;2023-08-01T08:47:38;2.17;;;1.70;;
38117;SDS011;23928;47.562;7.508;2023-08-01T08:50:09;2.10;;;1.73;;
38117;SDS011;23928;47.562;7.508;2023-08-01T08:52:36;2.30;;;1.50;;
38117;SDS011;23928;47.562;7.508;2023-08-01T08:55:03;2.57;;;1.50;;
38117;SDS011;23928;47.562;7.508;2023-08-01T08:57:30;2.07;;;1.60;;
38117;SDS011;23928;47.562;7.508;2023-08-01T08:59:56;3.00;;;1.70;;
38117;SDS011;23928;47.562;7.508;2023-08-01T09:02:23;2.13;;;1.67;;
38117;SDS011;23928;47.562;7.508;2023-08-01T09:04:49;1.80;;;1.70;;
38117;SDS011;23928;47.562;7.508;2023-08-01T09:07:15;2.43;;;1.63;;
38117;SDS011;23928;47.562;7.508;2023-08-01T09:09:44;1.73;;;1.63;;
38117;SDS011;23928;47.562;7.508;2023-08-01T09:12:10;2.10;;;1.90;;
38117;SDS011;23928;47.562;7.508;2023-08-01T09:14:36;2.10;;;1.77;;
38117;SDS011;23928;47.562;7.508;2023-08-01T09:17:05;2.40;;;1.90;;
38117;SDS011;23928;47.562;7.508;2023-08-01T09:19:32;2.60;;;2.03;;
38117;SDS011;23928;47.562;7.508;2023-08-01T09:21:58;2.53;;;1.90;;
38117;SDS011;23928;47.562;7.508;2023-08-01T09:24:24;2.20;;;1.50;;
38117;SDS011;23928;47.562;7.508;2023-08-01T09:26:49;3.10;;;1.70;;
38117;SDS011;23928;47.562;7.508;2023-08-01T09:29:19;2.03;;;1.90;;
38117;SDS011;23928;47.562;7.508;2023-08-01T09:31:45;2.90;;;1.50;;
38117;SDS011;23928;47.562;7.508;2023-08-01T09:36:46;3.60;;;1.73;;
38117;SDS011;23928;47.562;7.508;2023-08-01T09:39:16;2.30;;;1.93;;
38117;SDS011;23928;47.562;7.508;2023-08-01T09:41:43;2.30;;;1.50;;
38117;SDS011;23928;47.562;7.508;2023-08-01T09:44:15;1.27;;;1.17;;
38117;SDS011;23928;47.562;7.508;2023-08-01T09:46:41;3.03;;;1.60;;
38117;SDS011;23928;47.562;7.508;2023-08-01T09:49:09;2.27;;;1.60;;
38117;SDS011;23928;47.562;7.508;2023-08-01T09:51:57;6.33;;;1.90;;
38117;SDS011;23928;47.562;7.508;2023-08-01T09:54:22;2.00;;;1.40;;
38117;SDS011;23928;47.562;7.508;2023-08-01T09:56:49;1.87;;;1.40;;
38117;SDS011;23928;47.562;7.508;2023-08-01T09:59:20;1.70;;;1.60;;
38117;SDS011;23928;47.562;7.508;2023-08-01T10:01:48;2.67;;;1.53;;
38117;SDS011;23928;47.562;7.508;2023-08-01T10:04:21;1.47;;;1.37;;
38117;SDS011;23928;47.562;7.508;2023-08-01T10:07:00;2.13;;;1.20;;
38117;SDS011;23928;47.562;7.508;2023-08-01T10:09:31;1.90;;;1.23;;
38117;SDS011;23928;47.562;7.508;2023-08-01T10:12:00;1.30;;;1.07;;
38117;SDS011;23928;47.562;7.508;2023-08-01T10:14:27;3.30;;;1.50;;
38117;SDS011;23928;47.562;7.508;2023-08-01T10:16:53;1.77;;;1.20;;
38117;SDS011;23928;47.562;7.508;2023-08-01T10:19:19;1.30;;;1.20;;
38117;SDS011;23928;47.562;7.508;2023-08-01T10:21:47;1.70;;;1.10;;
38117;SDS011;23928;47.562;7.508;2023-08-01T10:24:13;1.13;;;1.03;;
38117;SDS011;23928;47.562;7.508;2023-08-01T10:26:40;0.90;;;0.90;;
38117;SDS011;23928;47.562;7.508;2023-08-01T10:29:05;1.10;;;1.00;;
38117;SDS011;23928;47.562;7.508;2023-08-01T10:31:31;1.17;;;1.07;;
38117;SDS011;23928;47.562;7.508;2023-08-01T10:34:04;1.03;;;0.90;;
38117;SDS011;23928;47.562;7.508;2023-08-01T10:36:32;2.17;;;1.40;;
38117;SDS011;23928;47.562;7.508;2023-08-01T10:38:59;1.50;;;1.03;;
38117;SDS011;23928;47.562;7.508;2023-08-01T10:44:08;1.07;;;0.90;;
38117;SDS011;23928;47.562;7.508;2023-08-01T10:46:47;1.17;;;1.07;;
38117;SDS011;23928;47.562;7.508;2023-08-01T10:49:14;1.00;;;0.90;;
38117;SDS011;23928;47.562;7.508;2023-08-01T10:51:40;0.80;;;0.80;;
38117;SDS011;23928;47.562;7.508;2023-08-01T10:54:06;1.47;;;1.00;;
38117;SDS011;23928;47.562;7.508;2023-08-01T10:56:44;0.93;;;0.93;;
38117;SDS011;23928;47.562;7.508;2023-08-01T10:59:12;1.70;;;1.30;;
38117;SDS011;23928;47.562;7.508;2023-08-01T11:01:45;1.30;;;1.20;;
38117;SDS011;23928;47.562;7.508;2023-08-01T11:04:19;1.20;;;1.10;;
38117;SDS011;23928;47.562;7.508;2023-08-01T11:06:47;1.13;;;0.97;;
38117;SDS011;23928;47.562;7.508;2023-08-01T11:09:15;2.20;;;1.00;;
38117;SDS011;23928;47.562;7.508;2023-08-01T11:11:42;1.33;;;1.20;;
38117;SDS011;23928;47.562;7.508;2023-08-01T11:14:07;1.63;;;1.13;;
38117;SDS011;23928;47.562;7.508;2023-08-01T11:16:33;1.77;;;1.20;;
38117;SDS011;23928;47.562;7.508;2023-08-01T11:18:59;1.83;;;1.00;;
38117;SDS011;23928;47.562;7.508;2023-08-01T11:21:27;0.70;;;0.70;;
38117;SDS011;23928;47.562;7.508;2023-08-01T11:23:53;1.30;;;0.90;;
38117;SDS011;23928;47.562;7.508;2023-08-01T11:26:18;0.90;;;0.90;;
38117;SDS011;23928;47.562;7.508;2023-08-01T11:28:45;1.37;;;1.27;;
38117;SDS011;23928;47.562;7.508;2023-08-01T11:31:11;1.20;;;1.10;;
38117;SDS011;23928;47.562;7.508;2023-08-01T11:33:40;1.10;;;1.00;;
38117;SDS011;23928;47.562;7.508;2023-08-01T11:36:05;0.87;;;0.80;;
38117;SDS011;23928;47.562;7.508;2023-08-01T11:38:32;1.40;;;0.97;;
38117;SDS011;23928;47.562;7.508;2023-08-01T11:41:03;0.70;;;0.70;;
38117;SDS011;23928;47.562;7.508;2023-08-01T11:43:42;0.60;;;0.60;;
38117;SDS011;23928;47.562;7.508;2023-08-01T11:46:08;1.03;;;0.87;;
38117;SDS011;23928;47.562;7.508;2023-08-01T11:48:34;1.17;;;0.83;;
38117;SDS011;23928;47.562;7.508;2023-08-01T11:51:01;0.80;;;0.80;;
38117;SDS011;23928;47.562;7.508;2023-08-01T11:53:27;1.97;;;0.60;;
38117;SDS011;23928;47.562;7.508;2023-08-01T11:55:54;2.80;;;0.80;;
38117;SDS011;23928;47.562;7.508;2023-08-01T11:58:28;1.27;;;0.90;;
38117;SDS011;23928;47.562;7.508;2023-08-01T12:01:01;0.87;;;0.87;;
38117;SDS011;23928;47.562;7.508;2023-08-01T12:03:56;1.40;;;0.87;;
38117;SDS011;23928;47.562;7.508;2023-08-01T12:06:22;1.43;;;0.70;;
38117;SDS011;23928;47.562;7.508;2023-08-01T12:08:50;2.00;;;0.97;;
38117;SDS011;23928;47.562;7.508;2023-08-01T12:11:24;0.93;;;0.70;;
38117;SDS011;23928;47.562;7.508;2023-08-01T12:14:10;1.47;;;1.00;;
38117;SDS011;23928;47.562;7.508;2023-08-01T12:16:38;0.70;;;0.70;;
38117;SDS011;23928;47.562;7.508;2023-08-01T12:19:10;0.80;;;0.80;;
38117;SDS011;23928;47.562;7.508;2023-08-01T12:21:41;1.13;;;1.00;;
38117;SDS011;23928;47.562;7.508;2023-08-01T12:24:07;2.07;;;0.73;;
38117;SDS011;23928;47.562;7.508;2023-08-01T12:26:33;0.70;;;0.70;;
38117;SDS011;23928;47.562;7.508;2023-08-01T12:28:59;1.13;;;0.90;;
38117;SDS011;23928;47.562;7.508;2023-08-01T12:31:24;1.10;;;1.00;;
38117;SDS011;23928;47.562;7.508;2023-08-01T12:33:50;1.00;;;0.87;;
38117;SDS011;23928;47.562;7.508;2023-08-01T12:36:17;1.27;;;0.80;;
38117;SDS011;23928;47.562;7.508;2023-08-01T12:38:44;0.73;;;0.73;;
38117;SDS011;23928;47.562;7.508;2023-08-01T12:41:09;1.53;;;0.70;;
38117;SDS011;23928;47.562;7.508;2023-08-01T12:43:35;2.00;;;0.60;;
38117;SDS011;23928;47.562;7.508;2023-08-01T12:46:01;1.00;;;0.90;;
38117;SDS011;23928;47.562;7.508;2023-08-01T12:48:27;0.90;;;0.70;;
38117;SDS011;23928;47.562;7.508;2023-08-01T12:50:53;0.80;;;0.80;;
38117;SDS011;23928;47.562;7.508;2023-08-01T12:53:19;1.23;;;0.90;;
38117;SDS011;23928;47.562;7.508;2023-08-01T12:55:46;0.83;;;0.70;;
38117;SDS011;23928;47.562;7.508;2023-08-01T12:58:13;1.47;;;0.87;;
38117;SDS011;23928;47.562;7.508;2023-08-01T13:00:39;0.83;;;0.83;;
38117;SDS011;23928;47.562;7.508;2023-08-01T13:03:05;1.00;;;1.00;;
38117;SDS011;23928;47.562;7.508;2023-08-01T13:05:34;0.87;;;0.80;;
38117;SDS011;23928;47.562;7.508;2023-08-01T13:08:01;1.63;;;0.90;;
38117;SDS011;23928;47.562;7.508;2023-08-01T13:10:29;0.93;;;0.90;;
38117;SDS011;23928;47.562;7.508;2023-08-01T13:12:56;1.47;;;0.83;;
38117;SDS011;23928;47.562;7.508;2023-08-01T13:15:22;1.00;;;0.93;;
38117;SDS011;23928;47.562;7.508;2023-08-01T13:17:48;1.57;;;1.00;;
38117;SDS011;23928;47.562;7.508;2023-08-01T13:20:13;2.53;;;1.00;;
38117;SDS011;23928;47.562;7.508;2023-08-01T13:22:39;2.00;;;0.90;;
38117;SDS011;23928;47.562;7.508;2023-08-01T13:25:04;0.80;;;0.80;;
38117;SDS011;23928;47.562;7.508;2023-08-01T13:27:31;0.70;;;0.70;;
38117;SDS011;23928;47.562;7.508;2023-08-01T13:29:59;0.83;;;0.83;;
38117;SDS011;23928;47.562;7.508;2023-08-01T13:32:24;1.27;;;0.90;;
38117;SDS011;23928;47.562;7.508;2023-08-01T13:34:50;0.93;;;0.93;;
38117;SDS011;23928;47.562;7.508;2023-08-01T13:37:15;1.30;;;0.80;;
38117;SDS011;23928;47.562;7.508;2023-08-01T13:39:41;0.93;;;0.83;;
38117;SDS011;23928;47.562;7.508;2023-08-01T13:42:07;1.03;;;0.90;;
38117;SDS011;23928;47.562;7.508;2023-08-01T13:44:32;1.33;;;0.80;;
38117;SDS011;23928;47.562;7.508;2023-08-01T13:46:58;1.47;;;0.80;;
38117;SDS011;23928;47.562;7.508;2023-08-01T13:49:23;0.70;;;0.70;;
38117;SDS011;23928;47.562;7.508;2023-08-01T13:51:49;0.80;;;0.80;;
38117;SDS011;23928;47.562;7.508;2023-08-01T13:54:14;3.53;;;0.90;;
38117;SDS011;23928;47.562;7.508;2023-08-01T13:56:40;2.60;;;0.90;;
38117;SDS011;23928;47.562;7.508;2023-08-01T13:59:06;1.10;;;1.00;;
38117;SDS011;23928;47.562;7.508;2023-08-01T14:01:31;0.93;;;0.90;;
38117;SDS011;23928;47.562;7.508;2023-08-01T14:03:57;0.83;;;0.83;;
38117;SDS011;23928;47.562;7.508;2023-08-01T14:06:23;0.63;;;0.63;;
38117;SDS011;23928;47.562;7.508;2023-08-01T14:08:48;1.73;;;0.80;;
38117;SDS011;23928;47.562;7.508;2023-08-01T14:11:14;2.23;;;0.90;;
38117;SDS011;23928;47.562;7.508;2023-08-01T14:13:39;1.00;;;0.90;;
38117;SDS011;23928;47.562;7.508;2023-08-01T14:16:05;0.90;;;0.90;;
38117;SDS011;23928;47.562;7.508;2023-08-01T14:18:30;2.00;;;0.90;;
38117;SDS011;23928;47.562;7.508;2023-08-01T14:20:56;0.70;;;0.70;;
38117;SDS011;23928;47.562;7.508;2023-08-01T14:23:22;0.87;;;0.80;;
38117;SDS011;23928;47.562;7.508;2023-08-01T14:25:47;1.57;;;0.90;;
38117;SDS011;23928;47.562;7.508;2023-08-01T14:28:13;1.97;;;1.03;;
38117;SDS011;23928;47.562;7.508;2023-08-01T14:30:39;0.90;;;0.90;;
38117;SDS011;23928;47.562;7.508;2023-08-01T14:33:05;0.50;;;0.50;;
38117;SDS011;23928;47.562;7.508;2023-08-01T14:35:35;0.70;;;0.70;;
38117;SDS011;23928;47.562;7.508;2023-08-01T14:38:02;1.63;;;0.80;;
38117;SDS011;23928;47.562;7.508;2023-08-01T14:40:28;0.87;;;0.87;;
38117;SDS011;23928;47.562;7.508;2023-08-01T14:42:54;1.23;;;0.80;;
38117;SDS011;23928;47.562;7.508;2023-08-01T14:45:20;1.87;;;0.83;;
38117;SDS011;23928;47.562;7.508;2023-08-01T14:47:47;0.77;;;0.70;;